Westview, KY (40178)

6:59 AM CST on February 10, 2016 (GMT -0600)
Eveleigh Road | | Change Station
CLOSE
Current Station
Personal Weather Station
Location: Leitchfield, KY
Elevation: 670 ft
Nearby Weather Stations
Active Advisory: Winter Weather Advisory Active Notice: Public Information Statement

Elev 670 ft 37.58 °N, 86.34 °W | Updated 10 seconds ago

Overcast
Overcast
14.9 °F
Feels Like 3 °F
N
9.8
Wind Variable Wind from North
Gusts 9.8 mph

Today
High -- | Low -- °F
--% Chance of Precip.
Yesterday
High -- | Low -- °F
Precip. -- in
Pressure 30.04 in
Visibility 10.0 miles
Clouds Overcast 1700 ft
Windchill 3 °F
Dew Point 13 °F
Humidity 90%
Rainfall 0.00 in
Snow Depth Not available.
6:41 AM 5:18 PM
Waxing Crescent, 5% visible
SPECI KFTK 101236Z AUTO 26012G16KT 10SM -SN OVC017 M09/M14 A3004 RMK AO2 SNB06 CIG 013V017
Pressure 30.04 in
Visibility 10.0 miles
Clouds Overcast 1700 ft
Windchill 3 °F
Dew Point 13 °F
Humidity 90%
Rainfall 0.00 in
Snow Depth Not available.
6:41 AM 5:18 PM
Waxing Crescent, 5% visible
SPECI KFTK 101236Z AUTO 26012G16KT 10SM -SN OVC017 M09/M14 A3004 RMK AO2 SNB06 CIG 013V017

10-Day Weather Forecast

Almanac

Astronomy

Feb. 10, 2016 Rise Set
Actual Time
Civil Twilight
Nautical Twilight
Astronomical Twilight
Moon
Length of Visible Light
Length of Day
Tomorrow will be .
, % of the Moon is Illuminated

Today's Extremes

State Highs State Lows

Community

WunderPhotos

Upload Photos

1,891,837 photos uploaded!

WunderBlog® & News

Nearby

Air Quality

  Air Quality AQ Index Pollutant
Not available.

Snow Depth

Station Depth Elevation

Earthquake Activity

City Distance Mag. Time & Date
Minimum magnitude displayed is 2.5.

Coastal Water Temperatures

Place Temperature

Stations

Nearby Weather Stations

Station Location Temp. Windchill Dew Point Humidity Wind Precip. Elev Updated Type
                   

Watches & Warnings

Winter Weather Advisory
Issued: 2:28 AM CST Feb. 10, 2016 – National Weather Service

... Winter Weather Advisory remains in effect until 10 am EST
/9 am CST/ this morning...

* timing... scattered snow showers through mid to late morning.

* Main impact... periods of moderate to heavy snow showers at times
will result in quick accumulations of 1/2 to locally 1 inch.
Roads will remain or become slick and snow covered... especially
secondary and untreated surfaces.

* Other impacts... wind chill values will be in the single digits
to near zero this morning.

Precautionary/preparedness actions...

Research shows that more traffic accidents occur with an inch or
less of snow... before drivers realize that traction is reduced.
Don't become a statistic... slow down and leave extra distance
between vehicles.



Zt